Time;durP1;ratioP1;P1;durP2;ratioP2;P2;SDS_P1;SDS_P2;PMS_P1;PMS_P2;Temp;Humidity;BMP_temperature;BMP_pressure;BME280_temperature;BME280_humidity;BME280_pressure;Samples;Min_cycle;Max_cycle;Signal;HPM_P1;HPM_P2
2021/10/25 00:00:39;;;;;;;6.75;3.40;;;4.60;91.90;;;;;;4960110;28;20214;-67
2021/10/25 00:03:04;;;;;;;11.90;3.45;;;4.60;92.00;;;;;;4959864;28;20027;-68
2021/10/25 00:05:30;;;;;;;7.32;3.10;;;4.50;92.10;;;;;;4956353;28;20031;-67
2021/10/25 00:07:56;;;;;;;6.50;3.17;;;4.50;92.30;;;;;;4964905;28;20035;-67
2021/10/25 00:10:22;;;;;;;5.55;3.63;;;4.60;92.20;;;;;;4956364;28;20022;-67
2021/10/25 00:12:47;;;;;;;10.02;3.13;;;4.60;92.20;;;;;;4972816;28;20037;-67
2021/10/25 00:15:13;;;;;;;10.15;3.40;;;4.60;92.20;;;;;;4948846;28;20030;-67
2021/10/25 00:17:39;;;;;;;6.20;3.05;;;4.50;92.30;;;;;;4964642;28;20027;-67
2021/10/25 00:20:08;;;;;;;8.52;3.25;;;4.50;92.10;;;;;;4969697;28;20445;-68
2021/10/25 00:22:33;;;;;;;5.72;3.13;;;4.60;92.30;;;;;;4971496;28;20507;-67
2021/10/25 00:24:59;;;;;;;8.15;3.33;;;4.60;92.30;;;;;;4961489;28;20023;-67
2021/10/25 00:27:25;;;;;;;8.25;3.13;;;4.70;91.90;;;;;;4964075;28;20394;-67
2021/10/25 00:29:51;;;;;;;8.98;3.45;;;4.60;91.90;;;;;;4964573;28;20720;-67
2021/10/25 00:32:16;;;;;;;8.70;3.42;;;4.60;92.00;;;;;;4975989;28;20046;-67
2021/10/25 00:34:42;;;;;;;9.02;3.20;;;4.60;92.10;;;;;;4959586;28;20049;-67
2021/10/25 00:37:07;;;;;;;11.90;3.40;;;4.60;92.10;;;;;;4961510;28;20039;-68
2021/10/25 00:39:33;;;;;;;6.65;3.20;;;4.50;92.20;;;;;;4960985;28;20066;-68
2021/10/25 00:42:01;;;;;;;9.65;3.40;;;4.40;92.40;;;;;;4963950;28;20033;-68
2021/10/25 00:44:29;;;;;;;6.65;3.42;;;4.30;92.80;;;;;;4966214;28;20029;-67
2021/10/25 00:46:55;;;;;;;6.15;3.30;;;4.20;92.80;;;;;;4961504;28;20105;-67
2021/10/25 00:49:20;;;;;;;8.05;3.33;;;4.20;93.10;;;;;;4961213;28;22247;-67
2021/10/25 00:51:46;;;;;;;6.18;3.13;;;4.20;93.20;;;;;;4957797;28;20118;-67
2021/10/25 00:54:12;;;;;;;7.60;3.40;;;4.20;93.10;;;;;;4955854;28;20419;-67
2021/10/25 00:56:42;;;;;;;9.10;3.85;;;4.30;93.30;;;;;;4959897;28;20031;-67
2021/10/25 00:59:08;;;;;;;10.60;3.35;;;4.30;93.20;;;;;;4966364;28;20023;-67
2021/10/25 01:01:33;;;;;;;9.15;3.63;;;4.40;93.40;;;;;;4965789;28;20049;-68
2021/10/25 01:03:59;;;;;;;7.97;3.53;;;4.40;92.90;;;;;;4972894;28;20062;-67
2021/10/25 01:06:25;;;;;;;6.20;3.00;;;4.40;92.70;;;;;;4978933;28;20504;-67
2021/10/25 01:08:51;;;;;;;10.38;4.05;;;4.40;93.00;;;;;;4964496;28;20034;-67
2021/10/25 01:11:17;;;;;;;7.93;3.40;;;4.50;93.00;;;;;;4966110;28;20090;-67
2021/10/25 01:13:44;;;;;;;7.07;3.70;;;4.40;92.80;;;;;;4968901;28;20039;-67
2021/10/25 01:16:09;;;;;;;8.63;3.53;;;4.50;92.60;;;;;;4946946;28;20039;-67
2021/10/25 01:18:35;;;;;;;11.90;3.63;;;4.40;92.80;;;;;;4967837;28;20033;-68
2021/10/25 01:21:01;;;;;;;7.03;3.28;;;4.50;92.60;;;;;;4950362;28;20026;-67
2021/10/25 01:23:26;;;;;;;9.93;3.88;;;4.50;92.20;;;;;;4958578;28;20121;-68
2021/10/25 01:25:54;;;;;;;8.98;3.40;;;4.50;92.40;;;;;;4965196;28;20038;-67
2021/10/25 01:28:20;;;;;;;6.45;3.60;;;4.50;92.40;;;;;;4969805;28;20053;-67
2021/10/25 01:30:46;;;;;;;9.93;3.55;;;4.60;92.50;;;;;;4965250;28;20027;-67
2021/10/25 01:33:14;;;;;;;8.20;3.80;;;4.60;92.20;;;;;;4950622;28;20031;-67
2021/10/25 01:35:40;;;;;;;7.68;3.67;;;4.60;92.40;;;;;;4963861;28;20537;-67
2021/10/25 01:38:06;;;;;;;7.78;3.40;;;4.50;92.20;;;;;;4965349;28;20037;-67
2021/10/25 01:40:31;;;;;;;6.85;3.20;;;4.50;92.50;;;;;;4960435;28;20023;-67
2021/10/25 01:42:57;;;;;;;6.63;3.67;;;4.60;92.40;;;;;;4949883;28;20031;-67
2021/10/25 01:45:23;;;;;;;7.72;3.72;;;4.50;92.30;;;;;;4964068;28;20034;-67
2021/10/25 01:47:49;;;;;;;7.30;3.83;;;4.40;92.70;;;;;;4966804;28;20023;-67
2021/10/25 01:50:16;;;;;;;7.00;3.40;;;4.40;92.80;;;;;;4968361;28;20031;-67
2021/10/25 01:52:42;;;;;;;5.97;3.65;;;4.40;92.80;;;;;;4959895;28;20074;-68
2021/10/25 01:55:08;;;;;;;10.60;3.97;;;4.50;92.80;;;;;;4963234;28;20063;-67
2021/10/25 01:57:34;;;;;;;10.15;3.78;;;4.50;92.60;;;;;;4967790;28;20058;-67
2021/10/25 02:00:00;;;;;;;10.35;4.07;;;4.50;92.80;;;;;;4959636;28;20059;-67
2021/10/25 02:02:25;;;;;;;7.63;3.80;;;4.50;92.70;;;;;;4970099;28;20470;-67
2021/10/25 02:04:51;;;;;;;7.03;3.85;;;4.60;92.60;;;;;;4959569;28;20039;-68
2021/10/25 02:07:16;;;;;;;7.45;3.55;;;4.50;92.60;;;;;;4962072;28;20042;-67
2021/10/25 02:09:42;;;;;;;6.85;3.60;;;4.50;92.60;;;;;;4963877;28;20037;-68
2021/10/25 02:12:08;;;;;;;11.15;3.97;;;4.50;92.70;;;;;;4964049;28;20061;-67
2021/10/25 02:14:33;;;;;;;8.50;3.72;;;4.50;92.80;;;;;;4965109;28;20034;-67
2021/10/25 02:16:59;;;;;;;10.40;3.70;;;4.40;92.70;;;;;;4965516;28;20130;-67
2021/10/25 02:19:24;;;;;;;7.18;4.07;;;4.40;92.80;;;;;;4956557;28;20101;-67
2021/10/25 02:21:50;;;;;;;9.00;4.25;;;4.40;93.00;;;;;;4968183;28;20050;-67
2021/10/25 02:24:15;;;;;;;7.68;3.80;;;4.40;93.20;;;;;;4961111;28;21014;-67
2021/10/25 02:26:41;;;;;;;7.90;3.97;;;4.30;93.10;;;;;;4964729;28;20082;-68
2021/10/25 02:29:06;;;;;;;8.00;4.30;;;4.40;93.20;;;;;;4956996;28;20109;-67
2021/10/25 02:31:32;;;;;;;7.72;3.67;;;4.50;93.10;;;;;;4958427;28;20380;-67
2021/10/25 02:33:58;;;;;;;5.72;3.53;;;4.50;92.50;;;;;;4990567;23;20088;-75
2021/10/25 02:36:23;;;;;;;6.88;4.10;;;4.40;92.70;;;;;;4983220;28;20333;-75
2021/10/25 02:38:49;;;;;;;9.38;4.15;;;4.30;92.80;;;;;;4982126;28;20499;-75
2021/10/25 02:41:15;;;;;;;13.05;4.50;;;4.40;93.10;;;;;;4966337;28;20125;-75
2021/10/25 02:43:41;;;;;;;13.60;4.03;;;4.20;93.00;;;;;;4977212;28;20053;-75
2021/10/25 02:46:07;;;;;;;8.30;4.07;;;4.30;93.40;;;;;;4966138;28;20046;-75
2021/10/25 02:48:33;;;;;;;8.68;3.85;;;4.30;93.40;;;;;;4970841;28;20030;-75
2021/10/25 02:50:58;;;;;;;10.38;4.78;;;4.20;93.40;;;;;;4961077;28;20090;-75
2021/10/25 02:53:24;;;;;;;8.82;4.38;;;4.10;93.40;;;;;;4964665;28;20100;-75
2021/10/25 02:55:50;;;;;;;11.60;4.47;;;4.20;93.70;;;;;;4965697;28;20102;-75
2021/10/25 02:58:17;;;;;;;9.23;4.03;;;4.30;93.60;;;;;;4966671;28;20190;-76
2021/10/25 03:00:43;;;;;;;8.43;4.28;;;4.30;93.60;;;;;;4943696;28;20031;-75
2021/10/25 03:03:09;;;;;;;6.30;4.35;;;4.30;93.50;;;;;;4965182;28;20027;-75
2021/10/25 03:05:34;;;;;;;8.48;4.30;;;4.30;93.50;;;;;;4967938;28;20067;-74
2021/10/25 03:08:00;;;;;;;11.90;4.60;;;4.20;93.30;;;;;;4966316;28;20380;-77
2021/10/25 03:10:27;;;;;;;9.20;4.53;;;4.20;93.60;;;;;;4968976;28;20026;-75
2021/10/25 03:12:52;;;;;;;9.98;4.60;;;4.20;93.70;;;;;;4947503;28;20575;-76
2021/10/25 03:15:18;;;;;;;8.45;4.63;;;4.20;93.90;;;;;;4966034;28;20049;-75
2021/10/25 03:17:44;;;;;;;11.05;4.97;;;4.20;94.00;;;;;;4960584;28;20114;-75
2021/10/25 03:20:12;;;;;;;9.65;4.60;;;4.30;93.80;;;;;;4950216;28;20034;-75
2021/10/25 03:22:38;;;;;;;7.50;4.55;;;4.30;93.60;;;;;;4950546;28;20113;-75
2021/10/25 03:25:05;;;;;;;6.47;3.83;;;4.30;93.70;;;;;;4965986;28;20126;-75
2021/10/25 03:27:31;;;;;;;9.10;4.72;;;4.30;93.60;;;;;;4940128;28;20447;-75
2021/10/25 03:29:56;;;;;;;12.07;4.63;;;4.40;93.60;;;;;;4984780;28;20026;-77
2021/10/25 03:32:22;;;;;;;9.73;4.72;;;4.30;93.50;;;;;;4985816;28;20041;-75
2021/10/25 03:34:49;;;;;;;10.20;4.85;;;4.40;93.50;;;;;;4985840;28;20556;-77
2021/10/25 03:37:16;;;;;;;8.15;4.50;;;4.30;93.40;;;;;;4980559;28;20459;-77
2021/10/25 03:39:45;;;;;;;6.57;4.25;;;4.30;93.30;;;;;;4983887;28;20022;-76
2021/10/25 03:42:18;;;;;;;9.25;4.68;;;4.40;93.60;;;;;;4982704;28;20088;-75
2021/10/25 03:44:51;;;;;;;8.80;4.65;;;4.40;93.40;;;;;;4988923;28;20393;-75
2021/10/25 03:47:25;;;;;;;9.60;4.68;;;4.40;93.50;;;;;;4984185;28;20030;-75
2021/10/25 03:49:56;;;;;;;10.23;4.25;;;4.30;93.20;;;;;;4983838;28;20577;-76
2021/10/25 03:52:30;;;;;;;9.73;4.03;;;4.20;93.50;;;;;;4984208;28;20019;-76
2021/10/25 03:58:04;;;;;;;8.20;4.80;;;4.30;93.50;;;;;;4983690;28;20202;-77
2021/10/25 04:00:43;;;;;;;8.90;4.63;;;4.30;93.70;;;;;;4981295;28;20098;-76
2021/10/25 04:25:16;;;;;;;8.73;4.53;;;4.20;93.90;;;;;;4985510;28;20100;-75
2021/10/25 04:30:12;;;;;;;7.43;4.65;;;4.20;93.70;;;;;;4987913;28;20122;-74
2021/10/25 04:32:38;;;;;;;13.52;4.82;;;4.10;94.00;;;;;;4985119;28;20037;-76
2021/10/25 04:35:04;;;;;;;7.25;4.63;;;4.10;94.10;;;;;;4981001;28;20525;-75
2021/10/25 04:37:30;;;;;;;9.43;4.78;;;4.10;94.20;;;;;;4983091;28;20036;-75
2021/10/25 04:39:55;;;;;;;10.25;4.65;;;4.00;94.20;;;;;;4984300;28;20030;-75
2021/10/25 04:42:21;;;;;;;10.30;4.90;;;4.00;94.60;;;;;;4986683;28;20022;-75
2021/10/25 04:44:48;;;;;;;8.32;4.72;;;4.00;94.50;;;;;;4980357;28;20401;-74
2021/10/25 04:47:14;;;;;;;10.82;4.50;;;4.00;94.40;;;;;;4969359;28;20038;-75
2021/10/25 04:49:41;;;;;;;9.35;4.53;;;4.00;94.40;;;;;;4967144;28;20164;-75
2021/10/25 04:52:07;;;;;;;7.60;4.40;;;3.90;94.50;;;;;;4980803;28;20105;-74
2021/10/25 04:54:33;;;;;;;11.52;5.30;;;3.90;94.70;;;;;;4985524;28;20038;-75
2021/10/25 04:56:59;;;;;;;11.35;5.60;;;4.00;94.70;;;;;;4976821;28;20035;-74
2021/10/25 04:59:25;;;;;;;12.88;5.10;;;3.90;94.60;;;;;;4964044;28;20033;-77
2021/10/25 05:01:51;;;;;;;10.35;4.78;;;3.90;94.70;;;;;;4961427;28;20039;-74
2021/10/25 05:04:17;;;;;;;10.95;4.63;;;3.90;94.80;;;;;;4974984;28;20064;-74
2021/10/25 05:06:43;;;;;;;11.63;5.22;;;3.90;94.80;;;;;;4977329;28;20059;-77
2021/10/25 05:09:08;;;;;;;9.52;4.97;;;3.90;94.90;;;;;;4978347;28;20042;-78
2021/10/25 05:11:34;;;;;;;8.32;5.25;;;3.90;94.80;;;;;;4961280;28;20464;-74
2021/10/25 05:13:59;;;;;;;8.88;4.93;;;3.90;95.00;;;;;;4979103;28;20141;-75
2021/10/25 05:16:25;;;;;;;12.00;4.88;;;4.00;95.00;;;;;;4985142;28;20363;-75
2021/10/25 05:18:51;;;;;;;14.32;6.03;;;4.00;94.80;;;;;;4983796;28;20117;-75
2021/10/25 05:21:16;;;;;;;7.85;4.55;;;3.90;94.80;;;;;;4979804;28;20520;-76
2021/10/25 05:23:42;;;;;;;9.15;5.18;;;3.90;94.90;;;;;;4969322;28;20027;-77
2021/10/25 05:26:07;;;;;;;11.88;5.18;;;3.80;95.00;;;;;;4979234;28;20460;-75
2021/10/25 05:28:33;;;;;;;7.45;5.25;;;3.80;95.00;;;;;;4979250;28;20495;-76
2021/10/25 05:30:59;;;;;;;9.45;5.55;;;3.90;95.10;;;;;;4966756;28;20406;-76
2021/10/25 05:33:24;;;;;;;14.20;5.32;;;3.90;94.90;;;;;;4979211;28;20068;-76
2021/10/25 05:35:50;;;;;;;7.45;5.68;;;3.90;94.90;;;;;;4965773;28;20022;-78
2021/10/25 05:38:16;;;;;;;12.15;5.80;;;3.90;95.10;;;;;;4983644;28;20046;-78
2021/10/25 05:40:42;;;;;;;10.20;5.65;;;3.90;95.00;;;;;;4980681;28;20369;-76
2021/10/25 05:43:08;;;;;;;10.02;6.25;;;3.90;95.00;;;;;;4979565;28;20172;-77
2021/10/25 05:45:34;;;;;;;11.18;5.68;;;3.90;95.00;;;;;;4978538;28;20436;-77
2021/10/25 05:47:59;;;;;;;10.18;5.60;;;3.80;95.00;;;;;;4965365;28;20172;-76
2021/10/25 05:50:25;;;;;;;9.57;5.50;;;3.80;95.10;;;;;;4963257;28;20053;-77
2021/10/25 05:52:50;;;;;;;10.13;5.47;;;3.90;95.50;;;;;;4966151;28;20038;-78
2021/10/25 05:55:21;;;;;;;10.32;5.53;;;3.80;95.00;;;;;;4983845;28;20030;-77
2021/10/25 05:57:48;;;;;;;13.13;5.80;;;3.80;95.20;;;;;;4986796;28;20312;-77
2021/10/25 06:00:14;;;;;;;11.63;5.63;;;3.80;95.30;;;;;;4983800;28;20022;-78
2021/10/25 06:02:42;;;;;;;11.32;6.53;;;3.80;95.40;;;;;;4991246;28;20077;-78
2021/10/25 06:05:07;;;;;;;9.95;5.72;;;3.80;95.40;;;;;;4989520;28;20019;-76
2021/10/25 06:07:33;;;;;;;11.40;6.22;;;3.80;95.50;;;;;;4990943;28;20077;-77
2021/10/25 06:09:59;;;;;;;12.50;6.30;;;3.80;95.70;;;;;;4969287;28;20101;-76
2021/10/25 06:12:26;;;;;;;12.82;6.63;;;3.70;95.40;;;;;;4967985;28;20022;-77
2021/10/25 06:14:54;;;;;;;8.88;6.13;;;3.80;95.90;;;;;;4963058;28;20034;-76
2021/10/25 06:17:24;;;;;;;15.98;6.95;;;3.80;95.60;;;;;;4971450;28;20050;-77
2021/10/25 06:19:50;;;;;;;10.02;6.28;;;3.80;95.70;;;;;;4973114;28;20034;-76
2021/10/25 06:22:18;;;;;;;8.98;5.93;;;3.80;95.70;;;;;;4988206;28;20421;-78
2021/10/25 06:24:47;;;;;;;9.60;6.30;;;3.80;95.90;;;;;;4986708;28;20014;-77
2021/10/25 06:27:13;;;;;;;13.20;6.60;;;3.90;95.40;;;;;;4982143;28;20049;-77
2021/10/25 06:29:39;;;;;;;11.35;6.95;;;3.90;95.40;;;;;;4962699;28;20068;-76
2021/10/25 06:32:05;;;;;;;10.82;6.68;;;3.90;95.70;;;;;;4969445;28;20410;-76
2021/10/25 06:34:38;;;;;;;12.75;7.22;;;3.90;95.60;;;;;;4971184;28;20057;-76
2021/10/25 06:37:05;;;;;;;8.57;6.07;;;3.90;95.40;;;;;;4984618;28;20060;-76
2021/10/25 06:39:41;;;;;;;12.65;6.78;;;4.00;95.60;;;;;;4986651;28;20165;-79
2021/10/25 06:42:07;;;;;;;10.10;6.07;;;3.90;95.40;;;;;;4987148;28;20033;-75
2021/10/25 06:47:18;;;;;;;9.95;6.03;;;3.90;95.40;;;;;;4994144;28;20100;-79
2021/10/25 06:49:44;;;;;;;10.15;5.90;;;3.90;95.40;;;;;;4980388;28;20026;-76
2021/10/25 06:52:09;;;;;;;12.10;6.78;;;3.90;95.50;;;;;;4981450;28;20410;-76
2021/10/25 06:54:35;;;;;;;13.27;6.20;;;3.90;95.60;;;;;;4988683;28;20037;-78
2021/10/25 06:57:03;;;;;;;12.95;7.00;;;3.90;95.50;;;;;;4984692;28;20062;-76
2021/10/25 06:59:28;;;;;;;11.18;6.55;;;4.00;95.50;;;;;;4978673;28;20458;-76
2021/10/25 07:01:54;;;;;;;11.35;6.47;;;4.10;95.50;;;;;;4985080;28;20086;-77
2021/10/25 07:04:20;;;;;;;12.82;6.28;;;4.10;95.50;;;;;;4992114;28;20021;-76
2021/10/25 07:06:46;;;;;;;12.55;6.60;;;4.10;95.50;;;;;;4983922;28;20035;-76
2021/10/25 07:09:11;;;;;;;13.93;5.88;;;4.10;95.50;;;;;;4996795;28;20034;-77
2021/10/25 07:11:42;;;;;;;12.68;6.63;;;4.10;95.50;;;;;;4967702;28;20107;-77
2021/10/25 07:14:08;;;;;;;15.77;6.93;;;4.20;95.30;;;;;;4973142;28;20045;-77
2021/10/25 07:16:42;;;;;;;9.88;6.68;;;4.30;95.20;;;;;;4976567;28;20523;-77
2021/10/25 07:19:28;;;;;;;10.60;6.45;;;4.30;95.30;;;;;;4986657;28;20026;-78
2021/10/25 07:27:50;;;;;;;11.55;6.28;;;4.40;95.10;;;;;;4980828;28;20033;-77
2021/10/25 07:59:40;;;;;;;13.15;6.95;;;4.60;94.90;;;;;;4985568;28;20179;-78
2021/10/25 08:00:58;;;;;;;8.35;3.97;;;6.00;91.00;;;;;;4982976;28;20190;-76
2021/10/25 08:06:14;;;;;;;12.73;4.90;;;5.90;91.00;;;;;;4978945;28;20108;-77
2021/10/25 08:08:49;;;;;;;8.13;4.63;;;6.00;90.60;;;;;;4973264;28;20141;-77
2021/10/25 08:11:15;;;;;;;8.90;4.63;;;6.30;90.90;;;;;;4983460;28;20022;-77
2021/10/25 08:13:45;;;;;;;6.88;4.03;;;6.40;90.30;;;;;;4979396;28;20453;-78
2021/10/25 08:16:21;;;;;;;9.77;4.53;;;6.50;90.00;;;;;;4962447;28;20147;-79
2021/10/25 08:21:21;;;;;;;7.50;4.30;;;6.80;89.10;;;;;;4985029;28;20103;-76
2021/10/25 08:23:48;;;;;;;8.10;3.97;;;6.90;88.30;;;;;;4992458;28;20027;-78
2021/10/25 08:26:14;;;;;;;9.88;3.92;;;7.00;88.10;;;;;;4987119;28;20363;-78
2021/10/25 08:28:40;;;;;;;8.25;3.75;;;7.10;88.60;;;;;;4969112;28;20043;-79
2021/10/25 08:31:09;;;;;;;9.27;4.10;;;7.30;87.90;;;;;;4976970;28;20031;-77
2021/10/25 08:36:18;;;;;;;10.80;4.43;;;7.40;87.20;;;;;;4986733;28;20157;-79
2021/10/25 08:41:29;;;;;;;7.75;3.72;;;7.70;86.50;;;;;;4991373;28;20317;-80
2021/10/25 08:43:57;;;;;;;6.05;3.42;;;7.90;86.50;;;;;;4995714;28;20030;-80
2021/10/25 08:46:25;;;;;;;7.90;3.90;;;8.10;86.50;;;;;;4966095;28;20401;-81
2021/10/25 08:48:53;;;;;;;6.05;3.60;;;8.20;85.60;;;;;;4969274;28;20572;-78
2021/10/25 08:51:18;;;;;;;6.78;3.72;;;8.50;84.90;;;;;;4951718;28;20038;-79
2021/10/25 08:53:44;;;;;;;10.02;4.25;;;8.60;84.40;;;;;;4961441;28;20023;-80
2021/10/25 08:56:16;;;;;;;8.57;3.88;;;8.60;83.60;;;;;;4968071;28;20102;-80
2021/10/25 08:58:45;;;;;;;7.53;3.92;;;8.80;84.00;;;;;;4952918;28;20098;-79
2021/10/25 09:01:11;;;;;;;7.22;4.30;;;8.90;82.80;;;;;;4981161;28;20444;-80
2021/10/25 09:03:39;;;;;;;10.10;4.28;;;8.80;82.50;;;;;;4982943;28;20058;-79
2021/10/25 09:06:04;;;;;;;7.78;3.85;;;8.90;83.50;;;;;;4972417;28;20436;-80
2021/10/25 09:08:30;;;;;;;7.35;4.10;;;9.00;82.30;;;;;;4975209;28;20055;-80
2021/10/25 09:10:56;;;;;;;8.32;4.60;;;9.10;81.80;;;;;;4955619;28;20041;-79
2021/10/25 09:13:25;;;;;;;7.57;4.07;;;9.20;81.20;;;;;;4972426;28;20036;-80
2021/10/25 09:15:59;;;;;;;8.35;4.13;;;9.60;81.70;;;;;;4977207;28;20031;-79
2021/10/25 09:18:27;;;;;;;8.32;4.22;;;9.40;80.70;;;;;;4985672;28;20025;-80
2021/10/25 09:20:59;;;;;;;9.07;4.38;;;9.50;82.10;;;;;;4985257;28;20432;-80
2021/10/25 09:23:31;;;;;;;9.82;3.70;;;9.60;82.00;;;;;;4979293;28;20577;-80
2021/10/25 09:26:02;;;;;;;7.38;4.03;;;9.80;81.70;;;;;;4977228;28;20105;-79
2021/10/25 09:28:53;;;;;;;10.55;4.35;;;9.80;80.60;;;;;;4979745;28;20113;-80
2021/10/25 09:31:27;;;;;;;10.00;4.15;;;9.80;81.30;;;;;;4981535;28;20136;-81
2021/10/25 09:34:05;;;;;;;6.13;3.88;;;10.20;81.60;;;;;;4979999;28;20042;-80
2021/10/25 09:36:39;;;;;;;9.20;4.28;;;10.20;80.60;;;;;;4964349;28;20062;-81
2021/10/25 09:49:01;;;;;;;11.95;4.43;;;10.80;81.20;;;;;;4985264;28;20097;-79
2021/10/25 09:50:12;;;;;;;8.57;4.50;;;10.70;80.20;;;;;;4982901;28;20060;-80
2021/10/25 09:52:41;;;;;;;10.20;4.43;;;10.50;80.20;;;;;;4967802;28;20126;-80
2021/10/25 09:55:13;;;;;;;8.73;4.10;;;10.40;79.40;;;;;;4973419;28;20511;-80
2021/10/25 10:00:12;;;;;;;8.23;4.35;;;10.40;80.90;;;;;;4981661;28;20030;-80
2021/10/25 10:02:38;;;;;;;11.10;4.22;;;10.40;81.00;;;;;;4986737;28;20530;-79
2021/10/25 10:05:06;;;;;;;7.55;3.92;;;10.50;81.50;;;;;;4974568;28;20034;-79
2021/10/25 10:07:35;;;;;;;9.63;4.30;;;10.40;80.80;;;;;;4956472;28;20421;-79
2021/10/25 10:10:03;;;;;;;12.10;4.22;;;10.30;81.20;;;;;;4975045;28;20086;-80
2021/10/25 10:12:29;;;;;;;8.10;4.13;;;10.20;80.80;;;;;;4980141;28;20122;-79
2021/10/25 10:14:59;;;;;;;213.02;20.80;;;10.30;80.50;;;;;;4980083;28;20125;-80
2021/10/25 10:17:35;;;;;;;8.05;4.20;;;10.30;81.50;;;;;;4959677;28;20211;-81
2021/10/25 10:20:11;;;;;;;71.75;8.77;;;10.10;81.50;;;;;;4981490;28;20038;-79
2021/10/25 10:22:42;;;;;;;9.77;4.82;;;10.00;81.80;;;;;;4973439;28;20026;-80
2021/10/25 10:25:09;;;;;;;21.23;5.18;;;9.90;82.50;;;;;;4952418;28;20297;-79
2021/10/25 10:27:35;;;;;;;6.70;3.88;;;10.00;82.50;;;;;;4957901;28;20082;-81
2021/10/25 10:30:10;;;;;;;7.32;4.13;;;10.00;82.50;;;;;;4962745;28;20046;-80
2021/10/25 10:32:36;;;;;;;15.35;4.55;;;10.10;82.30;;;;;;4962692;28;20030;-78
2021/10/25 10:35:07;;;;;;;22.13;5.50;;;10.30;82.20;;;;;;4982264;28;20089;-79
2021/10/25 10:37:38;;;;;;;13.80;4.40;;;10.30;82.20;;;;;;4962391;28;20515;-81
2021/10/25 10:40:13;;;;;;;6.10;3.63;;;10.40;80.90;;;;;;4976278;28;20069;-80
2021/10/25 10:42:43;;;;;;;9.02;3.90;;;10.50;81.70;;;;;;4962382;28;20031;-79
2021/10/25 10:45:10;;;;;;;14.32;4.25;;;10.50;81.50;;;;;;4969723;28;20488;-79
2021/10/25 10:47:41;;;;;;;40.72;6.80;;;10.30;82.00;;;;;;4976556;28;20399;-78
2021/10/25 10:50:22;;;;;;;8.67;4.03;;;10.60;81.50;;;;;;4962250;28;20503;-79
2021/10/25 10:52:59;;;;;;;9.90;4.13;;;10.70;81.20;;;;;;4954831;28;20499;-80
2021/10/25 10:55:27;;;;;;;11.30;4.45;;;10.90;81.90;;;;;;4974574;28;20037;-79
2021/10/25 11:00:34;;;;;;;11.73;4.03;;;10.90;81.70;;;;;;4972508;28;20035;-79
2021/10/25 11:03:23;;;;;;;9.77;3.90;;;10.80;81.10;;;;;;4977855;28;20027;-79
2021/10/25 11:06:16;;;;;;;6.38;4.15;;;10.80;81.80;;;;;;4960133;28;20031;-80
2021/10/25 11:08:49;;;;;;;8.90;3.53;;;10.80;81.20;;;;;;4973484;28;20118;-80
2021/10/25 11:11:18;;;;;;;60.95;8.40;;;10.80;82.00;;;;;;4981101;28;20542;-81
2021/10/25 11:13:53;;;;;;;8.88;3.85;;;10.80;82.20;;;;;;4973474;28;20567;-80
2021/10/25 11:16:45;;;;;;;9.73;4.20;;;10.80;81.20;;;;;;4976855;28;20113;-80
2021/10/25 11:19:08;;;;;;;7.55;3.30;;;10.70;81.70;;;;;;4973304;28;20058;-81
2021/10/25 11:21:45;;;;;;;7.40;3.80;;;10.70;81.90;;;;;;4958071;28;20635;-80
2021/10/25 11:24:13;;;;;;;9.02;4.10;;;10.80;82.40;;;;;;4973601;28;20031;-80
2021/10/25 11:26:47;;;;;;;10.07;4.28;;;10.90;82.80;;;;;;4973906;28;20582;-81
2021/10/25 11:29:26;;;;;;;9.27;3.63;;;10.80;82.10;;;;;;4973429;28;20046;-81
2021/10/25 11:32:07;;;;;;;7.18;3.85;;;11.00;82.10;;;;;;4986853;28;20033;-80
2021/10/25 11:34:40;;;;;;;9.70;4.22;;;10.80;82.10;;;;;;4966977;28;20061;-79
2021/10/25 11:37:08;;;;;;;6.22;3.60;;;10.90;82.50;;;;;;4962947;28;20085;-79
2021/10/25 11:40:01;;;;;;;10.05;4.03;;;10.90;82.90;;;;;;4948872;28;20055;-79
2021/10/25 11:42:28;;;;;;;8.43;4.13;;;11.00;83.20;;;;;;4969419;28;20049;-80
2021/10/25 11:44:57;;;;;;;8.38;4.22;;;11.00;82.80;;;;;;4971275;28;20053;-81
2021/10/25 11:47:25;;;;;;;7.05;3.70;;;11.00;82.50;;;;;;4978434;28;20492;-81
2021/10/25 11:50:17;;;;;;;7.40;4.07;;;11.00;83.00;;;;;;4988145;28;20380;-80
2021/10/25 11:52:58;;;;;;;7.75;4.18;;;11.00;82.70;;;;;;4961923;28;20133;-81
2021/10/25 11:55:27;;;;;;;8.38;3.63;;;11.00;83.50;;;;;;4954205;28;20027;-81
2021/10/25 11:57:55;;;;;;;10.10;3.47;;;11.00;83.40;;;;;;4963545;28;20031;-81
2021/10/25 12:00:22;;;;;;;8.45;4.03;;;11.00;83.40;;;;;;4952550;28;20065;-81
2021/10/25 12:02:48;;;;;;;8.55;3.40;;;11.00;83.70;;;;;;4958371;28;20121;-82
2021/10/25 12:05:20;;;;;;;10.05;3.92;;;11.00;83.50;;;;;;4956613;28;20038;-82
2021/10/25 12:07:53;;;;;;;8.50;3.80;;;11.00;84.30;;;;;;4984502;28;20054;-82
2021/10/25 12:10:24;;;;;;;8.07;3.88;;;11.00;84.30;;;;;;4979029;28;20057;-82
2021/10/25 12:12:51;;;;;;;14.13;4.53;;;10.90;84.20;;;;;;4982663;28;20023;-82
2021/10/25 12:15:18;;;;;;;7.15;3.97;;;11.00;84.60;;;;;;4972143;28;20057;-82
2021/10/25 12:17:45;;;;;;;7.90;3.90;;;11.00;84.10;;;;;;4962111;28;20030;-81
2021/10/25 12:20:12;;;;;;;8.38;4.10;;;10.90;84.40;;;;;;4964724;28;20440;-81
2021/10/25 12:22:42;;;;;;;8.50;4.20;;;10.80;84.60;;;;;;4970114;28;20027;-82
2021/10/25 12:25:08;;;;;;;7.80;4.30;;;10.90;85.00;;;;;;4970112;28;20027;-82
2021/10/25 12:27:41;;;;;;;8.35;4.20;;;10.90;84.90;;;;;;4970381;28;20029;-81
2021/10/25 12:30:11;;;;;;;7.95;3.90;;;10.90;85.40;;;;;;4967030;28;20492;-82
2021/10/25 12:32:48;;;;;;;8.00;4.35;;;11.00;85.30;;;;;;4988503;28;20019;-81
2021/10/25 12:35:14;;;;;;;7.30;4.22;;;11.10;85.30;;;;;;4969366;28;20543;-81
2021/10/25 12:37:39;;;;;;;11.40;4.20;;;11.10;84.90;;;;;;4974469;28;20146;-82
2021/10/25 12:40:17;;;;;;;6.03;3.78;;;11.10;85.00;;;;;;4953179;28;20503;-81
2021/10/25 12:42:43;;;;;;;7.97;3.75;;;11.20;85.10;;;;;;4969336;28;20026;-82
2021/10/25 12:45:18;;;;;;;7.78;4.00;;;11.20;84.30;;;;;;4967063;28;20030;-82
2021/10/25 12:47:44;;;;;;;9.27;3.90;;;11.20;84.80;;;;;;4986830;28;20029;-82
2021/10/25 12:50:13;;;;;;;7.05;4.07;;;11.40;85.30;;;;;;4959902;28;20030;-80
2021/10/25 12:52:40;;;;;;;7.28;3.63;;;11.30;84.80;;;;;;4976400;28;20552;-81
2021/10/25 12:55:06;;;;;;;6.47;3.88;;;11.40;84.70;;;;;;4964371;28;20049;-82
2021/10/25 12:57:34;;;;;;;7.22;3.70;;;11.40;85.00;;;;;;4981995;28;20039;-82
2021/10/25 13:00:13;;;;;;;6.38;3.42;;;11.50;85.00;;;;;;4978885;28;20528;-82
2021/10/25 13:02:48;;;;;;;8.43;3.85;;;11.60;85.20;;;;;;4974686;28;20038;-81
2021/10/25 13:05:16;;;;;;;9.00;3.90;;;11.70;85.10;;;;;;4985140;28;20076;-82
2021/10/25 13:07:59;;;;;;;6.85;3.33;;;11.80;85.10;;;;;;4983845;28;20025;-81
2021/10/25 13:10:28;;;;;;;7.50;3.80;;;11.90;84.60;;;;;;4976151;28;20280;-82
2021/10/25 13:12:54;;;;;;;5.45;2.95;;;11.90;84.00;;;;;;4991864;28;20034;-81
2021/10/25 13:15:23;;;;;;;10.40;3.72;;;12.00;84.50;;;;;;4982053;28;20046;-81
2021/10/25 13:17:49;;;;;;;6.35;3.60;;;11.90;84.40;;;;;;4989018;28;20018;-81
2021/10/25 13:20:18;;;;;;;7.65;3.30;;;12.00;84.60;;;;;;4978876;28;20480;-82
2021/10/25 13:22:44;;;;;;;5.32;3.30;;;12.00;83.90;;;;;;4972678;28;20031;-82
2021/10/25 13:25:10;;;;;;;6.43;2.90;;;12.00;84.00;;;;;;4975690;28;20143;-80
2021/10/25 13:27:37;;;;;;;7.55;3.42;;;12.10;84.50;;;;;;4962715;28;20046;-83
2021/10/25 13:30:05;;;;;;;8.30;3.30;;;12.10;84.20;;;;;;4977567;28;20026;-82
2021/10/25 13:32:31;;;;;;;6.63;3.08;;;12.10;83.80;;;;;;4985960;28;20146;-82
2021/10/25 13:34:56;;;;;;;8.90;3.65;;;12.20;84.20;;;;;;4956995;28;20120;-81
2021/10/25 13:37:22;;;;;;;8.45;3.60;;;12.20;84.30;;;;;;4983771;28;20489;-81
2021/10/25 13:39:48;;;;;;;7.95;3.15;;;12.10;84.10;;;;;;4985287;28;20032;-81
2021/10/25 13:42:15;;;;;;;6.70;3.47;;;12.10;83.60;;;;;;4976412;28;20027;-82
2021/10/25 13:44:41;;;;;;;6.05;3.22;;;12.10;84.10;;;;;;4986882;28;20029;-82
2021/10/25 13:47:06;;;;;;;6.78;3.50;;;12.10;84.30;;;;;;4990392;28;20030;-82
2021/10/25 13:49:32;;;;;;;5.90;3.40;;;12.00;84.00;;;;;;4972195;28;20031;-80
2021/10/25 13:51:58;;;;;;;9.85;3.63;;;12.10;84.20;;;;;;4981454;28;20109;-81
2021/10/25 13:54:24;;;;;;;10.02;3.55;;;12.10;83.50;;;;;;4977684;28;20114;-81
2021/10/25 13:56:49;;;;;;;6.60;3.55;;;12.00;83.70;;;;;;4969984;28;20098;-82
2021/10/25 13:59:15;;;;;;;6.72;3.55;;;12.00;84.30;;;;;;4988551;28;20214;-81
2021/10/25 14:01:40;;;;;;;6.22;3.55;;;12.00;84.10;;;;;;4960993;28;20031;-81
2021/10/25 14:04:10;;;;;;;7.85;3.38;;;12.00;84.20;;;;;;4981452;28;20055;-82
2021/10/25 14:06:35;;;;;;;7.95;3.70;;;12.10;84.60;;;;;;4979326;28;20018;-80
2021/10/25 14:09:02;;;;;;;6.93;3.20;;;12.10;84.80;;;;;;4978068;28;20027;-82
2021/10/25 14:11:31;;;;;;;9.15;3.70;;;12.10;84.30;;;;;;4984009;28;20554;-81
2021/10/25 14:14:40;;;;;;;6.05;3.38;;;12.00;84.30;;;;;;4955767;28;20027;-81
2021/10/25 14:16:51;;;;;;;8.25;3.03;;;12.00;84.80;;;;;;4953374;28;20246;-81
2021/10/25 14:19:19;;;;;;;8.52;3.53;;;11.90;84.60;;;;;;4966427;28;20026;-82
2021/10/25 14:21:45;;;;;;;11.35;3.30;;;12.00;85.00;;;;;;4971229;28;20117;-82
2021/10/25 14:24:11;;;;;;;5.95;2.97;;;11.90;84.30;;;;;;4970804;28;20061;-82